Poteau, OK

11:32 PM CST on February 09, 2016 (GMT -0600)
Kerr

Weather History for KRKR - April, 2013

Change the Weather History Date:

Sunday, April 21, 2013

  Actual Average (KFSM) Record (KFSM)
Temperature  
Mean Temperature 60 °F 63 °F  
Max Temperature 73 °F 75 °F 91 °F (1965)
Min Temperature 46 °F 51 °F 34 °F (1978)
Degree Days  
Heating Degree Days 6 4  
Month to date heating degree days 128  
Since 1 July heating degree days 3187  
Cooling Degree Days 0 2  
Month to date cooling degree days 32  
Year to date cooling degree days 44  
Growing Degree Days 10 (Base 50)    
Moisture  
Dew Point 44 °F    
Average Humidity 57    
Maximum Humidity 93    
Minimum Humidity 27    
Precipitation  
Precipitation 0.00 in 0.15 in 1.66 in (1928)
Month to date precipitation 2.87  
Year to date precipitation 12.29  
Sea Level Pressure  
Sea Level Pressure 30.19 in    
Wind  
Wind Speed 2 mph (SE)    
Max Wind Speed 10 mph    
Max Gust Speed 18 mph    
Visibility 10 miles    
Events      
T = Trace of Precipitation, MM = Missing Value Source: NWS Daily Summary

Daily Weather History Graph

Daily Weather History Graph

Search for Another Location

Airport or City:

Trip Planner

Search our weather history database for the weather conditions in past years. The results will help you decide how hot, cold, wet, or windy it might be!

Date:

Astronomy

Apr. 21, 2013 Rise Set
Actual Time 6:38 AM CDT 7:56 PM CDT
Civil Twilight 6:12 AM CDT 8:22 PM CDT
Nautical Twilight 5:40 AM CDT 8:54 PM CDT
Astronomical Twilight 5:07 AM CDT 9:27 PM CDT
Moon 3:51 PM CDT (4/21) 3:51 AM CDT (4/21)
Length of Visible Light 14h 10m
Length of Day
13h 17m
Waxing Gibbous, 80% of the Moon is Illuminated
Apr 21
Waxing Gibbous
Apr 25
Full
May 2
Last Quarter
May 9
New
May 17
First Quarter

Hourly Weather History & Observations

Time (CDT) Temp. Dew Point Humidity Pressure Visibility Wind Dir Wind Speed Gust Speed Precip Events Conditions
12:15 AM 53.6 °F 48.2 °F 82% 30.18 in 10.0 mi Calm Calm - N/A   Clear
12:35 AM 53.6 °F 46.4 °F 77% 30.18 in 10.0 mi Calm Calm - N/A   Clear
12:55 AM 53.6 °F 46.4 °F 77% 30.19 in 10.0 mi Calm Calm - N/A   Clear
1:15 AM 55.4 °F 44.6 °F 67% 30.18 in 10.0 mi SE 4.6 mph - N/A   Clear
1:35 AM 59.0 °F 41.0 °F 51% 30.18 in 10.0 mi Calm Calm - N/A   Clear
4:15 AM 51.8 °F 42.8 °F 71% 30.20 in 10.0 mi Calm Calm - N/A   Clear
4:35 AM 51.8 °F 44.6 °F 76% 30.21 in 10.0 mi Calm Calm - N/A   Clear
4:55 AM 51.8 °F 44.6 °F 76% 30.21 in 10.0 mi Calm Calm - N/A   Clear
5:15 AM 48.2 °F 42.8 °F 82% 30.22 in 10.0 mi Calm Calm - N/A   Clear
5:35 AM 48.2 °F 44.6 °F 87% 30.22 in 10.0 mi Calm Calm - N/A   Clear
5:55 AM 48.2 °F 44.6 °F 87% 30.23 in 10.0 mi Calm Calm - N/A   Clear
6:15 AM 51.8 °F 46.4 °F 82% 30.23 in 10.0 mi Calm Calm - N/A   Clear
6:35 AM 46.4 °F 44.6 °F 93% 30.23 in 10.0 mi Calm Calm - N/A   Clear
6:55 AM 46.4 °F 44.6 °F 93% 30.25 in 10.0 mi Calm Calm - N/A   Clear
7:15 AM 46.4 °F 42.8 °F 87% 30.26 in 10.0 mi Calm Calm - N/A   Clear
7:35 AM 51.8 °F 46.4 °F 82% 30.26 in 10.0 mi Calm Calm - N/A   Clear
7:55 AM 51.8 °F 46.4 °F 82% 30.26 in 10.0 mi Calm Calm - N/A   Clear
8:15 AM 55.4 °F 46.4 °F 72% 30.26 in 10.0 mi Calm Calm - N/A   Clear
8:35 AM 55.4 °F 46.4 °F 72% 30.27 in 10.0 mi Calm Calm - N/A   Clear
8:55 AM 55.4 °F 46.4 °F 72% 30.27 in 10.0 mi Calm Calm - N/A   Clear
9:15 AM 59.0 °F 44.6 °F 59% 30.27 in 10.0 mi Calm Calm - N/A   Clear
9:35 AM 60.8 °F 46.4 °F 59% 30.27 in 10.0 mi Calm Calm - N/A   Clear
9:55 AM 60.8 °F 46.4 °F 59% 30.27 in 10.0 mi Calm Calm - N/A   Clear
10:15 AM 64.4 °F 42.8 °F 45% 30.27 in 10.0 mi SSE 6.9 mph - N/A   Scattered Clouds
10:35 AM 62.6 °F 44.6 °F 52% 30.28 in 10.0 mi South 4.6 mph - N/A   Clear
10:55 AM 64.4 °F 42.8 °F 45% 30.27 in 10.0 mi SE 6.9 mph - N/A   Clear
11:15 AM 64.4 °F 44.6 °F 49% 30.26 in 10.0 mi Calm Calm - N/A   Clear
11:35 AM 66.2 °F 44.6 °F 46% 30.24 in 10.0 mi ESE 4.6 mph - N/A   Clear
11:55 AM 68.0 °F 42.8 °F 40% 30.23 in 10.0 mi ESE 4.6 mph - N/A   Clear
12:15 PM 68.0 °F 42.8 °F 40% 30.23 in 10.0 mi ESE 3.5 mph - N/A   Clear
12:35 PM 68.0 °F 44.6 °F 43% 30.21 in 10.0 mi SE 3.5 mph - N/A   Clear
12:55 PM 71.6 °F 42.8 °F 35% 30.21 in 10.0 mi SSE 9.2 mph 18.4 mph N/A   Clear
1:15 PM 68.0 °F 42.8 °F 40% 30.20 in 10.0 mi South 6.9 mph - N/A   Clear
1:35 PM 71.6 °F 44.6 °F 38% 30.19 in 10.0 mi SE 5.8 mph - N/A   Clear
1:55 PM 71.6 °F 39.2 °F 31% 30.18 in 10.0 mi SSE 9.2 mph - N/A   Clear
2:15 PM 71.6 °F 35.6 °F 27% 30.17 in 10.0 mi South 5.8 mph 9.2 mph N/A   Clear
2:35 PM 71.6 °F 35.6 °F 27% 30.17 in 10.0 mi SSE 6.9 mph - N/A   Clear
2:55 PM 71.6 °F 37.4 °F 29% 30.16 in 10.0 mi SE 10.4 mph - N/A   Clear
3:15 PM 71.6 °F 37.4 °F 29% 30.15 in 10.0 mi South 8.1 mph - N/A   Clear
3:35 PM 71.6 °F 37.4 °F 29% 30.14 in 10.0 mi SSE 9.2 mph 17.3 mph N/A   Clear
3:55 PM 71.6 °F 39.2 °F 31% 30.13 in 10.0 mi East 6.9 mph - N/A   Clear
4:15 PM 73.4 °F 39.2 °F 29% 30.13 in 10.0 mi South 8.1 mph - N/A   Clear
4:35 PM 71.6 °F 37.4 °F 29% 30.13 in 10.0 mi SSE 6.9 mph - N/A   Clear
4:55 PM 73.4 °F 39.2 °F 29% 30.12 in 10.0 mi South 6.9 mph - N/A   Clear
5:15 PM 73.4 °F 41.0 °F 31% 30.11 in 10.0 mi South 5.8 mph - N/A   Clear
5:35 PM 71.6 °F 41.0 °F 33% 30.11 in 10.0 mi ESE 6.9 mph - N/A   Clear
5:55 PM 71.6 °F 42.8 °F 35% 30.11 in 10.0 mi ESE 4.6 mph - N/A   Scattered Clouds
6:15 PM 71.6 °F 42.8 °F 35% 30.11 in 10.0 mi SE 5.8 mph - N/A   Scattered Clouds
6:35 PM 71.6 °F 41.0 °F 33% 30.11 in 10.0 mi ESE 8.1 mph - N/A   Clear
6:55 PM 71.6 °F 42.8 °F 35% 30.11 in 10.0 mi East 5.8 mph - N/A   Clear
7:15 PM 71.6 °F 42.8 °F 35% 30.12 in 10.0 mi SSE 3.5 mph - N/A   Clear
7:35 PM 69.8 °F 42.8 °F 38% 30.13 in 10.0 mi Calm Calm - N/A   Clear
7:55 PM 68.0 °F 42.8 °F 40% 30.13 in 10.0 mi Calm Calm - N/A   Clear
8:15 PM 62.6 °F 44.6 °F 52% 30.14 in 10.0 mi Calm Calm - N/A   Clear
8:35 PM 60.8 °F 46.4 °F 59% 30.15 in 10.0 mi Calm Calm - N/A   Clear
8:55 PM 59.0 °F 46.4 °F 63% 30.15 in 10.0 mi Calm Calm - N/A   Clear
9:15 PM 57.2 °F 50.0 °F 77% 30.17 in 10.0 mi Calm Calm - N/A   Clear
9:35 PM 59.0 °F 48.2 °F 67% 30.17 in 10.0 mi Calm Calm - N/A   Clear
9:55 PM 55.4 °F 46.4 °F 72% 30.18 in 10.0 mi Calm Calm - N/A   Clear
10:15 PM 55.4 °F 50.0 °F 82% 30.18 in 10.0 mi Calm Calm - N/A   Clear
10:35 PM 53.6 °F 48.2 °F 82% 30.18 in 10.0 mi Calm Calm - N/A   Clear
10:55 PM 51.8 °F 48.2 °F 88% 30.18 in 10.0 mi Calm Calm - N/A   Clear
11:15 PM 53.6 °F 46.4 °F 77% 30.19 in 10.0 mi Calm Calm - N/A   Clear
11:35 PM 53.6 °F 46.4 °F 77% 30.19 in 10.0 mi Calm Calm - N/A   Clear
11:55 PM 51.8 °F 44.6 °F 76% 30.19 in 10.0 mi Calm Calm - N/A   Clear